sensor_id;sensor_type;location;lat;lon;timestamp;P1;durP1;ratioP1;P2;durP2;ratioP2
24745;SDS011;12845;52.042;6.838;2022-07-24T00:00:23;10.20;;;7.18;;
24745;SDS011;12845;52.042;6.838;2022-07-24T00:02:48;9.63;;;8.00;;
24745;SDS011;12845;52.042;6.838;2022-07-24T00:05:14;10.18;;;7.75;;
24745;SDS011;12845;52.042;6.838;2022-07-24T00:07:39;10.82;;;7.82;;
24745;SDS011;12845;52.042;6.838;2022-07-24T00:10:05;9.27;;;7.78;;
24745;SDS011;12845;52.042;6.838;2022-07-24T00:12:31;9.30;;;7.57;;
24745;SDS011;12845;52.042;6.838;2022-07-24T00:14:57;10.45;;;7.43;;
24745;SDS011;12845;52.042;6.838;2022-07-24T00:17:23;10.43;;;7.82;;
24745;SDS011;12845;52.042;6.838;2022-07-24T00:19:48;8.80;;;7.63;;
24745;SDS011;12845;52.042;6.838;2022-07-24T00:22:13;9.85;;;7.82;;
24745;SDS011;12845;52.042;6.838;2022-07-24T00:24:39;10.50;;;8.55;;
24745;SDS011;12845;52.042;6.838;2022-07-24T00:27:04;8.70;;;7.35;;
24745;SDS011;12845;52.042;6.838;2022-07-24T00:29:30;11.80;;;7.90;;
24745;SDS011;12845;52.042;6.838;2022-07-24T00:31:55;10.57;;;7.60;;
24745;SDS011;12845;52.042;6.838;2022-07-24T00:34:20;9.43;;;8.07;;
24745;SDS011;12845;52.042;6.838;2022-07-24T00:36:46;9.75;;;7.88;;
24745;SDS011;12845;52.042;6.838;2022-07-24T00:39:11;9.63;;;7.63;;
24745;SDS011;12845;52.042;6.838;2022-07-24T00:41:37;10.00;;;7.47;;
24745;SDS011;12845;52.042;6.838;2022-07-24T00:46:36;9.00;;;7.07;;
24745;SDS011;12845;52.042;6.838;2022-07-24T00:49:04;9.65;;;7.95;;
24745;SDS011;12845;52.042;6.838;2022-07-24T00:51:30;7.97;;;7.05;;
24745;SDS011;12845;52.042;6.838;2022-07-24T00:53:55;8.65;;;7.43;;
24745;SDS011;12845;52.042;6.838;2022-07-24T00:56:20;8.13;;;6.93;;
24745;SDS011;12845;52.042;6.838;2022-07-24T00:58:47;10.43;;;6.95;;
24745;SDS011;12845;52.042;6.838;2022-07-24T01:01:13;8.13;;;7.22;;
24745;SDS011;12845;52.042;6.838;2022-07-24T01:03:39;10.68;;;7.65;;
24745;SDS011;12845;52.042;6.838;2022-07-24T01:06:06;9.15;;;7.47;;
24745;SDS011;12845;52.042;6.838;2022-07-24T01:08:32;8.93;;;7.00;;
24745;SDS011;12845;52.042;6.838;2022-07-24T01:10:59;9.20;;;7.70;;
24745;SDS011;12845;52.042;6.838;2022-07-24T01:13:26;12.82;;;7.80;;
24745;SDS011;12845;52.042;6.838;2022-07-24T01:15:51;10.48;;;7.60;;
24745;SDS011;12845;52.042;6.838;2022-07-24T01:18:17;9.75;;;7.32;;
24745;SDS011;12845;52.042;6.838;2022-07-24T01:20:45;9.07;;;6.85;;
24745;SDS011;12845;52.042;6.838;2022-07-24T01:23:11;8.13;;;6.68;;
24745;SDS011;12845;52.042;6.838;2022-07-24T01:25:38;11.88;;;6.95;;
24745;SDS011;12845;52.042;6.838;2022-07-24T01:28:04;8.38;;;6.90;;
24745;SDS011;12845;52.042;6.838;2022-07-24T01:30:29;8.93;;;6.90;;
24745;SDS011;12845;52.042;6.838;2022-07-24T01:32:55;8.45;;;6.53;;
24745;SDS011;12845;52.042;6.838;2022-07-24T01:35:20;8.23;;;6.50;;
24745;SDS011;12845;52.042;6.838;2022-07-24T01:37:45;9.15;;;7.38;;
24745;SDS011;12845;52.042;6.838;2022-07-24T01:40:11;9.60;;;6.80;;
24745;SDS011;12845;52.042;6.838;2022-07-24T01:42:36;9.00;;;7.20;;
24745;SDS011;12845;52.042;6.838;2022-07-24T01:45:02;10.55;;;6.32;;
24745;SDS011;12845;52.042;6.838;2022-07-24T01:47:28;8.35;;;7.22;;
24745;SDS011;12845;52.042;6.838;2022-07-24T01:49:53;8.77;;;7.25;;
24745;SDS011;12845;52.042;6.838;2022-07-24T01:52:19;8.80;;;6.97;;
24745;SDS011;12845;52.042;6.838;2022-07-24T01:54:44;9.40;;;7.53;;
24745;SDS011;12845;52.042;6.838;2022-07-24T01:57:09;10.05;;;7.65;;
24745;SDS011;12845;52.042;6.838;2022-07-24T01:59:35;9.07;;;7.47;;
24745;SDS011;12845;52.042;6.838;2022-07-24T02:02:00;8.85;;;7.85;;
24745;SDS011;12845;52.042;6.838;2022-07-24T02:04:25;10.18;;;7.70;;
24745;SDS011;12845;52.042;6.838;2022-07-24T02:06:51;10.68;;;8.20;;
24745;SDS011;12845;52.042;6.838;2022-07-24T02:09:16;9.63;;;7.45;;
24745;SDS011;12845;52.042;6.838;2022-07-24T02:11:42;10.25;;;8.55;;
24745;SDS011;12845;52.042;6.838;2022-07-24T02:14:07;10.57;;;8.13;;
24745;SDS011;12845;52.042;6.838;2022-07-24T02:16:32;10.10;;;8.65;;
24745;SDS011;12845;52.042;6.838;2022-07-24T02:18:57;9.52;;;8.13;;
24745;SDS011;12845;52.042;6.838;2022-07-24T02:21:23;10.65;;;8.60;;
24745;SDS011;12845;52.042;6.838;2022-07-24T02:23:48;11.02;;;8.57;;
24745;SDS011;12845;52.042;6.838;2022-07-24T02:26:14;14.95;;;8.98;;
24745;SDS011;12845;52.042;6.838;2022-07-24T02:28:39;9.98;;;8.20;;
24745;SDS011;12845;52.042;6.838;2022-07-24T02:31:05;10.25;;;8.15;;
24745;SDS011;12845;52.042;6.838;2022-07-24T02:33:30;11.43;;;8.70;;
24745;SDS011;12845;52.042;6.838;2022-07-24T02:35:55;9.60;;;8.35;;
24745;SDS011;12845;52.042;6.838;2022-07-24T02:38:21;11.18;;;8.88;;
24745;SDS011;12845;52.042;6.838;2022-07-24T02:40:46;11.48;;;9.43;;
24745;SDS011;12845;52.042;6.838;2022-07-24T02:43:11;11.02;;;8.00;;
24745;SDS011;12845;52.042;6.838;2022-07-24T02:45:37;11.02;;;8.73;;
24745;SDS011;12845;52.042;6.838;2022-07-24T02:48:02;10.27;;;8.55;;
24745;SDS011;12845;52.042;6.838;2022-07-24T02:50:32;12.43;;;8.55;;
24745;SDS011;12845;52.042;6.838;2022-07-24T02:53:00;10.75;;;8.23;;
24745;SDS011;12845;52.042;6.838;2022-07-24T02:55:26;10.90;;;8.75;;
24745;SDS011;12845;52.042;6.838;2022-07-24T02:57:53;10.07;;;8.45;;
24745;SDS011;12845;52.042;6.838;2022-07-24T03:00:18;9.90;;;8.57;;
24745;SDS011;12845;52.042;6.838;2022-07-24T03:02:44;13.13;;;8.60;;
24745;SDS011;12845;52.042;6.838;2022-07-24T03:05:09;11.68;;;9.30;;
24745;SDS011;12845;52.042;6.838;2022-07-24T03:07:35;12.38;;;8.77;;
24745;SDS011;12845;52.042;6.838;2022-07-24T03:10:02;11.45;;;8.52;;
24745;SDS011;12845;52.042;6.838;2022-07-24T03:12:31;9.88;;;8.20;;
24745;SDS011;12845;52.042;6.838;2022-07-24T03:14:56;11.07;;;8.43;;
24745;SDS011;12845;52.042;6.838;2022-07-24T03:17:22;9.23;;;7.90;;
24745;SDS011;12845;52.042;6.838;2022-07-24T03:19:47;10.45;;;8.18;;
24745;SDS011;12845;52.042;6.838;2022-07-24T03:22:12;10.70;;;8.75;;
24745;SDS011;12845;52.042;6.838;2022-07-24T03:24:38;10.85;;;8.20;;
24745;SDS011;12845;52.042;6.838;2022-07-24T03:27:03;10.35;;;8.50;;
24745;SDS011;12845;52.042;6.838;2022-07-24T03:29:28;11.52;;;8.85;;
24745;SDS011;12845;52.042;6.838;2022-07-24T03:31:54;11.25;;;8.30;;
24745;SDS011;12845;52.042;6.838;2022-07-24T03:34:19;11.37;;;8.47;;
24745;SDS011;12845;52.042;6.838;2022-07-24T03:36:44;12.02;;;8.00;;
24745;SDS011;12845;52.042;6.838;2022-07-24T03:39:10;11.93;;;7.85;;
24745;SDS011;12845;52.042;6.838;2022-07-24T03:41:35;10.65;;;8.00;;
24745;SDS011;12845;52.042;6.838;2022-07-24T03:44:00;8.93;;;7.82;;
24745;SDS011;12845;52.042;6.838;2022-07-24T03:46:26;9.85;;;8.20;;
24745;SDS011;12845;52.042;6.838;2022-07-24T03:48:53;10.57;;;8.15;;
24745;SDS011;12845;52.042;6.838;2022-07-24T03:51:19;10.02;;;7.85;;
24745;SDS011;12845;52.042;6.838;2022-07-24T03:53:44;12.30;;;8.23;;
24745;SDS011;12845;52.042;6.838;2022-07-24T03:56:10;9.68;;;8.30;;
24745;SDS011;12845;52.042;6.838;2022-07-24T03:58:35;12.95;;;9.23;;
24745;SDS011;12845;52.042;6.838;2022-07-24T04:01:01;12.27;;;7.95;;
24745;SDS011;12845;52.042;6.838;2022-07-24T04:03:27;12.45;;;8.80;;
24745;SDS011;12845;52.042;6.838;2022-07-24T04:05:53;10.10;;;8.45;;
24745;SDS011;12845;52.042;6.838;2022-07-24T04:08:18;12.13;;;8.30;;
24745;SDS011;12845;52.042;6.838;2022-07-24T04:10:43;10.90;;;8.75;;
24745;SDS011;12845;52.042;6.838;2022-07-24T04:13:09;10.65;;;7.80;;
24745;SDS011;12845;52.042;6.838;2022-07-24T04:15:34;10.15;;;8.45;;
24745;SDS011;12845;52.042;6.838;2022-07-24T04:18:00;11.07;;;8.60;;
24745;SDS011;12845;52.042;6.838;2022-07-24T04:20:25;10.93;;;8.45;;
24745;SDS011;12845;52.042;6.838;2022-07-24T04:22:50;9.75;;;8.43;;
24745;SDS011;12845;52.042;6.838;2022-07-24T04:25:15;10.55;;;8.43;;
24745;SDS011;12845;52.042;6.838;2022-07-24T04:27:41;13.23;;;8.55;;
24745;SDS011;12845;52.042;6.838;2022-07-24T04:30:08;14.65;;;8.60;;
24745;SDS011;12845;52.042;6.838;2022-07-24T04:32:34;11.48;;;8.60;;
24745;SDS011;12845;52.042;6.838;2022-07-24T04:34:59;12.23;;;8.93;;
24745;SDS011;12845;52.042;6.838;2022-07-24T04:37:24;11.17;;;8.90;;
24745;SDS011;12845;52.042;6.838;2022-07-24T04:39:49;11.25;;;8.70;;
24745;SDS011;12845;52.042;6.838;2022-07-24T04:42:15;11.93;;;8.77;;
24745;SDS011;12845;52.042;6.838;2022-07-24T04:44:40;11.25;;;8.75;;
24745;SDS011;12845;52.042;6.838;2022-07-24T04:47:06;12.15;;;9.07;;
24745;SDS011;12845;52.042;6.838;2022-07-24T04:49:31;10.93;;;8.80;;
24745;SDS011;12845;52.042;6.838;2022-07-24T04:51:56;12.35;;;8.77;;
24745;SDS011;12845;52.042;6.838;2022-07-24T04:54:22;11.50;;;8.48;;
24745;SDS011;12845;52.042;6.838;2022-07-24T04:56:48;10.23;;;8.57;;
24745;SDS011;12845;52.042;6.838;2022-07-24T04:59:13;10.82;;;8.85;;
24745;SDS011;12845;52.042;6.838;2022-07-24T05:01:38;10.45;;;8.60;;
24745;SDS011;12845;52.042;6.838;2022-07-24T05:04:04;11.15;;;8.60;;
24745;SDS011;12845;52.042;6.838;2022-07-24T05:06:29;12.23;;;9.02;;
24745;SDS011;12845;52.042;6.838;2022-07-24T05:08:54;12.35;;;8.93;;
24745;SDS011;12845;52.042;6.838;2022-07-24T05:11:20;10.52;;;8.48;;
24745;SDS011;12845;52.042;6.838;2022-07-24T05:13:45;12.82;;;9.10;;
24745;SDS011;12845;52.042;6.838;2022-07-24T05:16:10;12.18;;;9.27;;
24745;SDS011;12845;52.042;6.838;2022-07-24T05:18:36;10.77;;;8.90;;
24745;SDS011;12845;52.042;6.838;2022-07-24T05:21:01;12.27;;;8.53;;
24745;SDS011;12845;52.042;6.838;2022-07-24T05:23:27;12.35;;;9.32;;
24745;SDS011;12845;52.042;6.838;2022-07-24T05:25:52;10.60;;;8.90;;
24745;SDS011;12845;52.042;6.838;2022-07-24T05:28:17;10.37;;;8.60;;
24745;SDS011;12845;52.042;6.838;2022-07-24T05:30:43;9.82;;;8.18;;
24745;SDS011;12845;52.042;6.838;2022-07-24T05:33:08;10.13;;;8.80;;
24745;SDS011;12845;52.042;6.838;2022-07-24T05:35:33;12.15;;;9.40;;
24745;SDS011;12845;52.042;6.838;2022-07-24T05:37:59;12.15;;;9.60;;
24745;SDS011;12845;52.042;6.838;2022-07-24T05:40:24;10.88;;;9.60;;
24745;SDS011;12845;52.042;6.838;2022-07-24T05:42:49;13.70;;;9.73;;
24745;SDS011;12845;52.042;6.838;2022-07-24T05:45:15;15.10;;;9.77;;
24745;SDS011;12845;52.042;6.838;2022-07-24T05:47:40;11.80;;;9.65;;
24745;SDS011;12845;52.042;6.838;2022-07-24T05:50:07;10.60;;;8.63;;
24745;SDS011;12845;52.042;6.838;2022-07-24T05:52:37;13.88;;;10.30;;
24745;SDS011;12845;52.042;6.838;2022-07-24T05:55:02;11.35;;;9.43;;
24745;SDS011;12845;52.042;6.838;2022-07-24T05:57:28;10.18;;;9.07;;
24745;SDS011;12845;52.042;6.838;2022-07-24T05:59:54;12.32;;;10.23;;
24745;SDS011;12845;52.042;6.838;2022-07-24T06:02:19;10.52;;;9.18;;
24745;SDS011;12845;52.042;6.838;2022-07-24T06:04:45;15.15;;;9.48;;
24745;SDS011;12845;52.042;6.838;2022-07-24T06:07:10;11.85;;;9.73;;
24745;SDS011;12845;52.042;6.838;2022-07-24T06:09:36;15.55;;;10.45;;
24745;SDS011;12845;52.042;6.838;2022-07-24T06:12:01;12.75;;;10.40;;
24745;SDS011;12845;52.042;6.838;2022-07-24T06:14:27;12.82;;;10.15;;
24745;SDS011;12845;52.042;6.838;2022-07-24T06:16:53;15.93;;;10.80;;
24745;SDS011;12845;52.042;6.838;2022-07-24T06:19:18;13.00;;;10.90;;
24745;SDS011;12845;52.042;6.838;2022-07-24T06:21:43;16.00;;;10.35;;
24745;SDS011;12845;52.042;6.838;2022-07-24T06:24:09;13.25;;;10.27;;
24745;SDS011;12845;52.042;6.838;2022-07-24T06:26:34;13.18;;;10.25;;
24745;SDS011;12845;52.042;6.838;2022-07-24T06:28:59;12.55;;;10.68;;
24745;SDS011;12845;52.042;6.838;2022-07-24T06:31:25;12.27;;;10.40;;
24745;SDS011;12845;52.042;6.838;2022-07-24T06:33:50;14.00;;;10.88;;
24745;SDS011;12845;52.042;6.838;2022-07-24T06:36:15;13.70;;;10.50;;
24745;SDS011;12845;52.042;6.838;2022-07-24T06:38:41;12.63;;;10.93;;
24745;SDS011;12845;52.042;6.838;2022-07-24T06:41:06;12.98;;;10.20;;
24745;SDS011;12845;52.042;6.838;2022-07-24T06:43:31;13.73;;;10.55;;
24745;SDS011;12845;52.042;6.838;2022-07-24T06:45:57;11.40;;;10.20;;
24745;SDS011;12845;52.042;6.838;2022-07-24T06:48:22;14.48;;;9.65;;
24745;SDS011;12845;52.042;6.838;2022-07-24T06:50:48;13.93;;;10.98;;
24745;SDS011;12845;52.042;6.838;2022-07-24T06:53:13;15.57;;;9.38;;
24745;SDS011;12845;52.042;6.838;2022-07-24T06:55:38;12.45;;;9.57;;
24745;SDS011;12845;52.042;6.838;2022-07-24T06:58:04;14.30;;;10.45;;
24745;SDS011;12845;52.042;6.838;2022-07-24T07:00:29;12.82;;;10.52;;
24745;SDS011;12845;52.042;6.838;2022-07-24T07:02:54;12.25;;;9.75;;
24745;SDS011;12845;52.042;6.838;2022-07-24T07:05:20;12.75;;;10.55;;
24745;SDS011;12845;52.042;6.838;2022-07-24T07:07:45;13.23;;;10.68;;
24745;SDS011;12845;52.042;6.838;2022-07-24T07:10:11;13.97;;;10.67;;
24745;SDS011;12845;52.042;6.838;2022-07-24T07:12:36;12.98;;;10.60;;
24745;SDS011;12845;52.042;6.838;2022-07-24T07:15:03;16.38;;;11.27;;
24745;SDS011;12845;52.042;6.838;2022-07-24T07:17:29;13.25;;;11.25;;
24745;SDS011;12845;52.042;6.838;2022-07-24T07:19:54;13.02;;;10.63;;
24745;SDS011;12845;52.042;6.838;2022-07-24T07:22:19;13.60;;;10.95;;
24745;SDS011;12845;52.042;6.838;2022-07-24T07:24:45;12.27;;;10.00;;
24745;SDS011;12845;52.042;6.838;2022-07-24T07:27:10;16.30;;;11.30;;
24745;SDS011;12845;52.042;6.838;2022-07-24T07:29:36;14.90;;;11.23;;
24745;SDS011;12845;52.042;6.838;2022-07-24T07:32:01;14.00;;;11.50;;
24745;SDS011;12845;52.042;6.838;2022-07-24T07:34:26;15.60;;;12.45;;
24745;SDS011;12845;52.042;6.838;2022-07-24T07:36:52;14.43;;;12.10;;
24745;SDS011;12845;52.042;6.838;2022-07-24T07:39:17;15.45;;;13.38;;
24745;SDS011;12845;52.042;6.838;2022-07-24T07:41:43;15.82;;;12.52;;
24745;SDS011;12845;52.042;6.838;2022-07-24T07:44:08;18.97;;;13.80;;
24745;SDS011;12845;52.042;6.838;2022-07-24T07:46:33;19.85;;;12.73;;
24745;SDS011;12845;52.042;6.838;2022-07-24T07:48:59;17.17;;;12.93;;
24745;SDS011;12845;52.042;6.838;2022-07-24T07:51:24;15.93;;;13.68;;
24745;SDS011;12845;52.042;6.838;2022-07-24T07:53:50;17.30;;;13.23;;
24745;SDS011;12845;52.042;6.838;2022-07-24T07:56:15;17.77;;;13.73;;
24745;SDS011;12845;52.042;6.838;2022-07-24T07:58:42;17.92;;;14.38;;
24745;SDS011;12845;52.042;6.838;2022-07-24T08:01:07;20.90;;;14.77;;
24745;SDS011;12845;52.042;6.838;2022-07-24T08:03:32;19.10;;;14.30;;
24745;SDS011;12845;52.042;6.838;2022-07-24T08:05:59;17.00;;;13.80;;
24745;SDS011;12845;52.042;6.838;2022-07-24T08:08:25;18.35;;;14.32;;
24745;SDS011;12845;52.042;6.838;2022-07-24T08:10:50;18.35;;;14.95;;
24745;SDS011;12845;52.042;6.838;2022-07-24T08:13:15;20.38;;;16.05;;
24745;SDS011;12845;52.042;6.838;2022-07-24T08:15:43;23.00;;;16.67;;
24745;SDS011;12845;52.042;6.838;2022-07-24T08:18:08;17.70;;;13.63;;
24745;SDS011;12845;52.042;6.838;2022-07-24T08:20:34;20.85;;;16.17;;
24745;SDS011;12845;52.042;6.838;2022-07-24T08:22:59;20.83;;;16.08;;
24745;SDS011;12845;52.042;6.838;2022-07-24T08:25:25;19.15;;;14.30;;
24745;SDS011;12845;52.042;6.838;2022-07-24T08:27:51;24.60;;;14.80;;
24745;SDS011;12845;52.042;6.838;2022-07-24T08:30:16;26.50;;;16.42;;
24745;SDS011;12845;52.042;6.838;2022-07-24T08:32:42;21.27;;;15.00;;
24745;SDS011;12845;52.042;6.838;2022-07-24T08:35:08;21.30;;;16.85;;
24745;SDS011;12845;52.042;6.838;2022-07-24T08:37:38;20.85;;;15.10;;
24745;SDS011;12845;52.042;6.838;2022-07-24T08:40:05;18.73;;;14.90;;
24745;SDS011;12845;52.042;6.838;2022-07-24T08:42:32;18.98;;;15.32;;
24745;SDS011;12845;52.042;6.838;2022-07-24T08:44:57;19.08;;;14.68;;
24745;SDS011;12845;52.042;6.838;2022-07-24T08:47:23;20.02;;;14.32;;
24745;SDS011;12845;52.042;6.838;2022-07-24T08:49:51;19.10;;;14.23;;
24745;SDS011;12845;52.042;6.838;2022-07-24T08:52:18;18.50;;;14.05;;
24745;SDS011;12845;52.042;6.838;2022-07-24T08:54:47;17.07;;;14.60;;
24745;SDS011;12845;52.042;6.838;2022-07-24T08:57:12;21.58;;;14.05;;
24745;SDS011;12845;52.042;6.838;2022-07-24T08:59:38;16.75;;;10.82;;
24745;SDS011;12845;52.042;6.838;2022-07-24T09:02:04;17.40;;;12.75;;
24745;SDS011;12845;52.042;6.838;2022-07-24T09:04:45;18.00;;;13.57;;
24745;SDS011;12845;52.042;6.838;2022-07-24T09:07:17;14.98;;;11.90;;
24745;SDS011;12845;52.042;6.838;2022-07-24T09:09:44;13.45;;;10.32;;
24745;SDS011;12845;52.042;6.838;2022-07-24T09:14:48;16.23;;;11.23;;
24745;SDS011;12845;52.042;6.838;2022-07-24T09:17:15;16.10;;;11.48;;
24745;SDS011;12845;52.042;6.838;2022-07-24T09:19:45;12.00;;;9.40;;
24745;SDS011;12845;52.042;6.838;2022-07-24T09:25:16;14.45;;;10.38;;
24745;SDS011;12845;52.042;6.838;2022-07-24T09:27:53;16.95;;;10.48;;
24745;SDS011;12845;52.042;6.838;2022-07-24T09:30:30;12.90;;;10.52;;
24745;SDS011;12845;52.042;6.838;2022-07-24T09:33:05;13.18;;;10.27;;
24745;SDS011;12845;52.042;6.838;2022-07-24T09:35:41;13.52;;;8.68;;
24745;SDS011;12845;52.042;6.838;2022-07-24T09:38:07;14.25;;;9.30;;
24745;SDS011;12845;52.042;6.838;2022-07-24T09:40:36;13.00;;;10.73;;
24745;SDS011;12845;52.042;6.838;2022-07-24T09:52:44;16.83;;;9.60;;
24745;SDS011;12845;52.042;6.838;2022-07-24T09:56:27;11.98;;;8.95;;
24745;SDS011;12845;52.042;6.838;2022-07-24T09:59:22;10.73;;;8.45;;
24745;SDS011;12845;52.042;6.838;2022-07-24T10:09:22;12.30;;;9.55;;
24745;SDS011;12845;52.042;6.838;2022-07-24T10:12:20;12.23;;;8.57;;
24745;SDS011;12845;52.042;6.838;2022-07-24T10:15:51;12.95;;;7.72;;
24745;SDS011;12845;52.042;6.838;2022-07-24T10:19:16;11.13;;;7.70;;
24745;SDS011;12845;52.042;6.838;2022-07-24T10:25:56;11.20;;;7.32;;
24745;SDS011;12845;52.042;6.838;2022-07-24T10:29:06;10.82;;;7.00;;
24745;SDS011;12845;52.042;6.838;2022-07-24T10:31:59;9.50;;;6.40;;
24745;SDS011;12845;52.042;6.838;2022-07-24T10:35:30;8.45;;;5.60;;
24745;SDS011;12845;52.042;6.838;2022-07-24T10:41:50;8.52;;;7.28;;
24745;SDS011;12845;52.042;6.838;2022-07-24T10:44:25;8.80;;;6.10;;
24745;SDS011;12845;52.042;6.838;2022-07-24T10:47:02;9.05;;;6.20;;
24745;SDS011;12845;52.042;6.838;2022-07-24T10:51:59;9.02;;;5.93;;
24745;SDS011;12845;52.042;6.838;2022-07-24T10:54:25;8.48;;;5.35;;
24745;SDS011;12845;52.042;6.838;2022-07-24T10:57:02;9.70;;;5.90;;
24745;SDS011;12845;52.042;6.838;2022-07-24T11:03:03;7.88;;;5.25;;
24745;SDS011;12845;52.042;6.838;2022-07-24T11:05:31;6.15;;;4.70;;
24745;SDS011;12845;52.042;6.838;2022-07-24T11:10:45;7.55;;;4.72;;
24745;SDS011;12845;52.042;6.838;2022-07-24T11:16:46;6.82;;;4.90;;
24745;SDS011;12845;52.042;6.838;2022-07-24T11:20:13;9.77;;;5.57;;
24745;SDS011;12845;52.042;6.838;2022-07-24T11:22:41;6.82;;;5.25;;
24745;SDS011;12845;52.042;6.838;2022-07-24T11:25:14;8.10;;;5.63;;
24745;SDS011;12845;52.042;6.838;2022-07-24T11:27:57;11.55;;;6.07;;
24745;SDS011;12845;52.042;6.838;2022-07-24T11:30:27;6.22;;;5.13;;
24745;SDS011;12845;52.042;6.838;2022-07-24T11:32:54;8.43;;;5.22;;
24745;SDS011;12845;52.042;6.838;2022-07-24T11:35:27;8.15;;;5.20;;
24745;SDS011;12845;52.042;6.838;2022-07-24T11:37:58;7.18;;;5.13;;
24745;SDS011;12845;52.042;6.838;2022-07-24T11:40:25;6.70;;;4.88;;
24745;SDS011;12845;52.042;6.838;2022-07-24T11:42:54;7.30;;;4.90;;
24745;SDS011;12845;52.042;6.838;2022-07-24T11:45:23;7.55;;;4.95;;
24745;SDS011;12845;52.042;6.838;2022-07-24T11:47:48;8.73;;;4.75;;
24745;SDS011;12845;52.042;6.838;2022-07-24T11:50:14;6.10;;;4.60;;
24745;SDS011;12845;52.042;6.838;2022-07-24T11:52:40;7.00;;;4.75;;
24745;SDS011;12845;52.042;6.838;2022-07-24T11:57:39;9.32;;;4.50;;
24745;SDS011;12845;52.042;6.838;2022-07-24T12:00:07;5.75;;;4.20;;
24745;SDS011;12845;52.042;6.838;2022-07-24T12:02:53;6.57;;;5.18;;
24745;SDS011;12845;52.042;6.838;2022-07-24T12:05:26;5.78;;;4.13;;
24745;SDS011;12845;52.042;6.838;2022-07-24T12:07:55;6.70;;;3.97;;
24745;SDS011;12845;52.042;6.838;2022-07-24T12:10:22;5.88;;;4.15;;
24745;SDS011;12845;52.042;6.838;2022-07-24T12:12:49;4.80;;;3.22;;
24745;SDS011;12845;52.042;6.838;2022-07-24T12:15:16;5.32;;;3.33;;
24745;SDS011;12845;52.042;6.838;2022-07-24T12:18:00;5.60;;;3.78;;
24745;SDS011;12845;52.042;6.838;2022-07-24T12:20:28;5.43;;;3.35;;
24745;SDS011;12845;52.042;6.838;2022-07-24T12:22:59;7.32;;;3.83;;
24745;SDS011;12845;52.042;6.838;2022-07-24T12:25:26;6.63;;;3.67;;
24745;SDS011;12845;52.042;6.838;2022-07-24T12:28:01;4.07;;;2.55;;
24745;SDS011;12845;52.042;6.838;2022-07-24T12:30:30;5.25;;;3.22;;
24745;SDS011;12845;52.042;6.838;2022-07-24T12:35:28;6.00;;;3.20;;
24745;SDS011;12845;52.042;6.838;2022-07-24T12:37:55;6.30;;;3.95;;
24745;SDS011;12845;52.042;6.838;2022-07-24T12:40:32;5.97;;;3.72;;
24745;SDS011;12845;52.042;6.838;2022-07-24T12:45:29;4.15;;;3.13;;
24745;SDS011;12845;52.042;6.838;2022-07-24T12:53:34;5.70;;;3.03;;
24745;SDS011;12845;52.042;6.838;2022-07-24T12:56:02;5.53;;;3.25;;
24745;SDS011;12845;52.042;6.838;2022-07-24T12:58:29;5.30;;;2.80;;
24745;SDS011;12845;52.042;6.838;2022-07-24T13:00:57;4.82;;;3.17;;
24745;SDS011;12845;52.042;6.838;2022-07-24T13:03:26;4.82;;;3.65;;
24745;SDS011;12845;52.042;6.838;2022-07-24T13:08:20;3.25;;;2.72;;
24745;SDS011;12845;52.042;6.838;2022-07-24T13:10:45;4.20;;;2.90;;
24745;SDS011;12845;52.042;6.838;2022-07-24T13:13:10;5.03;;;2.97;;
24745;SDS011;12845;52.042;6.838;2022-07-24T13:15:36;6.45;;;3.65;;
24745;SDS011;12845;52.042;6.838;2022-07-24T13:18:01;5.80;;;2.90;;
24745;SDS011;12845;52.042;6.838;2022-07-24T13:20:26;4.72;;;3.20;;
24745;SDS011;12845;52.042;6.838;2022-07-24T13:22:52;4.53;;;3.00;;
24745;SDS011;12845;52.042;6.838;2022-07-24T13:25:17;4.65;;;3.13;;
24745;SDS011;12845;52.042;6.838;2022-07-24T13:27:43;4.40;;;3.03;;
24745;SDS011;12845;52.042;6.838;2022-07-24T13:30:09;3.72;;;2.83;;
24745;SDS011;12845;52.042;6.838;2022-07-24T13:32:35;4.68;;;2.78;;
24745;SDS011;12845;52.042;6.838;2022-07-24T13:35:01;3.25;;;2.80;;
24745;SDS011;12845;52.042;6.838;2022-07-24T13:37:26;5.78;;;3.10;;
24745;SDS011;12845;52.042;6.838;2022-07-24T13:39:51;5.53;;;2.95;;
24745;SDS011;12845;52.042;6.838;2022-07-24T13:42:17;3.67;;;2.47;;
24745;SDS011;12845;52.042;6.838;2022-07-24T13:44:42;3.15;;;2.03;;
24745;SDS011;12845;52.042;6.838;2022-07-24T13:47:07;4.10;;;2.95;;
24745;SDS011;12845;52.042;6.838;2022-07-24T13:49:33;5.70;;;2.90;;
24745;SDS011;12845;52.042;6.838;2022-07-24T13:51:58;3.80;;;2.58;;
24745;SDS011;12845;52.042;6.838;2022-07-24T13:54:31;4.95;;;2.80;;
24745;SDS011;12845;52.042;6.838;2022-07-24T13:57:01;3.28;;;2.42;;
24745;SDS011;12845;52.042;6.838;2022-07-24T13:59:29;3.35;;;2.15;;
24745;SDS011;12845;52.042;6.838;2022-07-24T14:01:55;4.68;;;2.95;;
24745;SDS011;12845;52.042;6.838;2022-07-24T14:04:21;3.35;;;2.30;;
24745;SDS011;12845;52.042;6.838;2022-07-24T14:06:46;3.38;;;2.17;;
24745;SDS011;12845;52.042;6.838;2022-07-24T14:09:12;3.22;;;2.40;;
24745;SDS011;12845;52.042;6.838;2022-07-24T14:11:37;4.68;;;3.33;;
24745;SDS011;12845;52.042;6.838;2022-07-24T14:14:05;3.65;;;2.60;;
24745;SDS011;12845;52.042;6.838;2022-07-24T14:16:31;5.80;;;2.88;;
24745;SDS011;12845;52.042;6.838;2022-07-24T14:18:56;3.95;;;2.42;;
24745;SDS011;12845;52.042;6.838;2022-07-24T14:21:22;3.28;;;2.45;;
24745;SDS011;12845;52.042;6.838;2022-07-24T14:23:48;3.33;;;2.28;;
24745;SDS011;12845;52.042;6.838;2022-07-24T14:26:13;3.58;;;2.47;;
24745;SDS011;12845;52.042;6.838;2022-07-24T14:28:38;4.80;;;2.60;;
24745;SDS011;12845;52.042;6.838;2022-07-24T14:31:04;3.22;;;2.50;;
24745;SDS011;12845;52.042;6.838;2022-07-24T14:33:29;3.03;;;2.28;;
24745;SDS011;12845;52.042;6.838;2022-07-24T14:35:55;3.17;;;2.20;;
24745;SDS011;12845;52.042;6.838;2022-07-24T14:38:20;3.13;;;2.53;;
24745;SDS011;12845;52.042;6.838;2022-07-24T14:40:46;2.88;;;2.22;;
24745;SDS011;12845;52.042;6.838;2022-07-24T14:43:11;3.28;;;2.30;;
24745;SDS011;12845;52.042;6.838;2022-07-24T14:45:36;2.67;;;2.03;;
24745;SDS011;12845;52.042;6.838;2022-07-24T14:48:02;3.85;;;2.03;;
24745;SDS011;12845;52.042;6.838;2022-07-24T14:50:28;6.60;;;2.38;;
24745;SDS011;12845;52.042;6.838;2022-07-24T14:52:53;3.42;;;2.20;;
24745;SDS011;12845;52.042;6.838;2022-07-24T14:55:19;3.42;;;2.30;;
24745;SDS011;12845;52.042;6.838;2022-07-24T14:57:44;3.08;;;2.20;;
24745;SDS011;12845;52.042;6.838;2022-07-24T15:00:10;3.58;;;2.20;;
24745;SDS011;12845;52.042;6.838;2022-07-24T15:02:36;3.47;;;2.30;;
24745;SDS011;12845;52.042;6.838;2022-07-24T15:05:01;4.03;;;2.20;;
24745;SDS011;12845;52.042;6.838;2022-07-24T15:07:27;3.63;;;2.47;;
24745;SDS011;12845;52.042;6.838;2022-07-24T15:09:53;3.60;;;2.65;;
24745;SDS011;12845;52.042;6.838;2022-07-24T15:12:18;3.60;;;2.53;;
24745;SDS011;12845;52.042;6.838;2022-07-24T15:14:44;4.45;;;2.88;;
24745;SDS011;12845;52.042;6.838;2022-07-24T15:17:09;4.28;;;2.60;;
24745;SDS011;12845;52.042;6.838;2022-07-24T15:19:35;3.53;;;2.88;;
24745;SDS011;12845;52.042;6.838;2022-07-24T15:22:00;4.00;;;2.33;;
24745;SDS011;12845;52.042;6.838;2022-07-24T15:24:25;3.50;;;2.50;;
24745;SDS011;12845;52.042;6.838;2022-07-24T15:26:51;3.90;;;2.90;;
24745;SDS011;12845;52.042;6.838;2022-07-24T15:29:16;3.22;;;2.45;;
24745;SDS011;12845;52.042;6.838;2022-07-24T15:31:42;4.72;;;2.92;;
24745;SDS011;12845;52.042;6.838;2022-07-24T15:34:08;4.38;;;2.55;;
24745;SDS011;12845;52.042;6.838;2022-07-24T15:36:33;6.00;;;2.95;;
24745;SDS011;12845;52.042;6.838;2022-07-24T15:38:59;3.38;;;2.60;;
24745;SDS011;12845;52.042;6.838;2022-07-24T15:41:25;3.80;;;2.60;;